createdAt,value
2023-03-14T00:00:58.098Z,12.50
2023-03-14T00:02:00.120Z,12.50
2023-03-14T00:03:01.906Z,12.50
2023-03-14T00:04:05.536Z,12.50
2023-03-14T00:05:08.865Z,12.50
2023-03-14T00:06:11.593Z,12.50
2023-03-14T00:07:13.907Z,12.50
2023-03-14T00:08:15.770Z,12.50
2023-03-14T00:09:18.304Z,12.50
2023-03-14T00:10:20.736Z,12.50
2023-03-14T00:11:22.931Z,12.50
2023-03-14T00:12:24.815Z,12.50
2023-03-14T00:13:26.631Z,12.50
2023-03-14T00:14:28.291Z,12.40
2023-03-14T00:15:30.099Z,12.40
2023-03-14T00:16:32.194Z,12.40
2023-03-14T00:17:38.259Z,12.40
2023-03-14T00:18:41.064Z,12.50
2023-03-14T00:19:42.897Z,12.40
2023-03-14T00:20:44.524Z,12.40
2023-03-14T00:21:46.349Z,12.40
2023-03-14T00:22:48.028Z,12.40
2023-03-14T00:23:49.804Z,12.40
2023-03-14T00:24:51.914Z,12.40
2023-03-14T00:25:55.999Z,12.40
2023-03-14T00:26:57.879Z,12.40
2023-03-14T00:27:59.832Z,12.40
2023-03-14T00:29:01.760Z,12.40
2023-03-14T00:30:04.302Z,12.40
2023-03-14T00:31:12.216Z,12.40
2023-03-14T00:32:14.400Z,12.40
2023-03-14T00:33:16.336Z,12.40
2023-03-14T00:34:18.240Z,12.40
2023-03-14T00:35:19.894Z,12.40
2023-03-14T00:36:22.532Z,12.40
2023-03-14T00:37:24.460Z,12.40
2023-03-14T00:38:26.776Z,12.40
2023-03-14T00:39:28.449Z,12.40
2023-03-14T00:40:30.099Z,12.50
2023-03-14T00:41:31.825Z,12.50
2023-03-14T00:42:34.001Z,12.50
2023-03-14T00:43:36.488Z,12.50
2023-03-14T00:44:38.342Z,12.60
2023-03-14T00:45:40.060Z,12.60
2023-03-14T00:46:42.104Z,12.60
2023-03-14T00:47:46.580Z,12.70
2023-03-14T00:48:49.030Z,12.70
2023-03-14T00:49:50.771Z,12.70
2023-03-14T00:50:52.643Z,12.70
2023-03-14T00:51:54.904Z,12.70
2023-03-14T00:52:56.646Z,12.70
2023-03-14T00:53:58.656Z,12.80
2023-03-14T00:55:00.599Z,12.80
2023-03-14T00:56:05.096Z,12.80
2023-03-14T00:57:07.178Z,12.80
2023-03-14T00:58:09.473Z,12.80
2023-03-14T00:59:11.702Z,12.80
2023-03-14T01:00:14.061Z,12.80
2023-03-14T01:01:19.165Z,12.80
2023-03-14T01:02:21.001Z,12.80
2023-03-14T01:03:22.813Z,12.80
2023-03-14T01:04:24.788Z,12.80
2023-03-14T01:05:26.431Z,12.80
2023-03-14T01:06:29.702Z,12.80
2023-03-14T01:07:31.542Z,12.80
2023-03-14T01:08:35.473Z,12.80
2023-03-14T01:09:37.155Z,12.80
2023-03-14T01:10:41.454Z,12.80
2023-03-14T01:11:44.208Z,12.80
2023-03-14T01:12:46.037Z,12.80
2023-03-14T01:13:48.094Z,12.80
2023-03-14T01:14:49.960Z,12.90
2023-03-14T01:15:55.191Z,12.80
2023-03-14T01:17:02.053Z,12.80
2023-03-14T01:18:04.345Z,12.80
2023-03-14T01:19:06.024Z,12.80
2023-03-14T01:20:12.044Z,12.80
2023-03-14T01:21:26.759Z,12.70
2023-03-14T01:22:28.449Z,12.80
2023-03-14T01:23:30.445Z,12.80
2023-03-14T01:24:32.118Z,12.80
2023-03-14T01:25:34.059Z,12.80
2023-03-14T01:26:36.830Z,12.70
2023-03-14T01:27:38.829Z,12.80
2023-03-14T01:28:41.000Z,12.80
2023-03-14T01:29:43.048Z,12.80
2023-03-14T01:30:44.751Z,12.80
2023-03-14T01:31:46.809Z,12.80
2023-03-14T01:32:48.705Z,12.80
2023-03-14T01:33:52.768Z,12.70
2023-03-14T01:34:54.659Z,12.80
2023-03-14T01:35:56.476Z,12.80
2023-03-14T01:36:58.410Z,12.80
2023-03-14T01:38:00.171Z,12.70
2023-03-14T01:39:02.013Z,12.80
2023-03-14T01:40:05.050Z,12.70
2023-03-14T01:41:08.613Z,12.80
2023-03-14T01:42:10.683Z,12.80
2023-03-14T01:43:20.132Z,12.70
2023-03-14T01:44:21.999Z,12.70
2023-03-14T01:46:01.257Z,12.70
2023-03-14T01:47:02.957Z,12.70
2023-03-14T01:48:05.174Z,12.70
2023-03-14T01:49:15.557Z,12.70
2023-03-14T01:50:17.265Z,12.70
2023-03-14T01:51:31.983Z,12.70
2023-03-14T01:52:42.910Z,12.70
2023-03-14T01:53:45.716Z,12.70
2023-03-14T01:54:51.721Z,12.70
2023-03-14T01:55:57.691Z,12.70
2023-03-14T01:57:27.548Z,12.70
2023-03-14T01:58:32.333Z,12.70
2023-03-14T01:59:35.550Z,12.70
2023-03-14T02:00:37.421Z,12.60
2023-03-14T02:01:43.122Z,12.60
2023-03-14T02:02:54.379Z,12.60
2023-03-14T02:03:59.697Z,12.60
2023-03-14T02:05:01.703Z,12.60
2023-03-14T02:06:07.884Z,12.50
2023-03-14T02:07:23.475Z,12.60
2023-03-14T02:08:25.867Z,12.50
2023-03-14T02:09:28.080Z,12.50
2023-03-14T02:10:42.674Z,12.50
2023-03-14T02:11:45.565Z,12.50
2023-03-14T02:12:49.292Z,12.50
2023-03-14T02:13:51.386Z,12.50
2023-03-14T02:14:53.149Z,12.60
2023-03-14T02:15:55.201Z,12.60
2023-03-14T02:16:57.590Z,12.50
2023-03-14T02:18:00.974Z,12.60
2023-03-14T02:19:03.946Z,12.60
2023-03-14T02:20:27.202Z,12.60
2023-03-14T02:21:39.373Z,12.50
2023-03-14T02:22:44.571Z,12.60
2023-03-14T02:24:00.128Z,12.60
2023-03-14T02:25:12.878Z,12.60
2023-03-14T02:26:24.701Z,12.50
2023-03-14T02:27:27.505Z,12.50
2023-03-14T02:28:29.213Z,12.40
2023-03-14T02:29:34.384Z,12.40
2023-03-14T02:30:36.641Z,12.40
2023-03-14T02:31:38.735Z,12.40
2023-03-14T02:32:44.431Z,12.40
2023-03-14T02:33:46.257Z,12.30
2023-03-14T02:34:51.647Z,12.40
2023-03-14T02:36:02.233Z,12.40
2023-03-14T02:37:06.046Z,12.40
2023-03-14T02:38:34.748Z,12.40
2023-03-14T02:39:40.127Z,12.30
2023-03-14T02:40:41.832Z,12.30
2023-03-14T02:41:46.426Z,12.30
2023-03-14T02:42:48.381Z,12.30
2023-03-14T02:43:50.181Z,12.30
2023-03-14T02:45:01.184Z,12.30
2023-03-14T02:46:04.891Z,12.30
2023-03-14T02:47:07.014Z,12.30
2023-03-14T02:48:15.234Z,12.30
2023-03-14T02:49:18.290Z,12.20
2023-03-14T02:50:27.939Z,12.30
2023-03-14T02:51:30.049Z,12.20
2023-03-14T02:52:31.874Z,12.30
2023-03-14T02:53:36.516Z,12.30
2023-03-14T02:54:38.341Z,12.30
2023-03-14T02:55:40.085Z,12.30
2023-03-14T02:56:41.760Z,12.30
2023-03-14T02:57:43.647Z,12.30
2023-03-14T02:58:45.559Z,12.30
2023-03-14T02:59:47.445Z,12.30
2023-03-14T03:00:49.733Z,12.30
2023-03-14T03:01:51.577Z,12.30
2023-03-14T03:02:53.612Z,12.30
2023-03-14T03:03:55.366Z,12.30
2023-03-14T03:04:57.847Z,12.30
2023-03-14T03:05:59.952Z,12.30
2023-03-14T03:07:02.149Z,12.30
2023-03-14T03:08:04.677Z,12.30
2023-03-14T03:09:06.522Z,12.30
2023-03-14T03:10:09.315Z,12.40
2023-03-14T03:11:11.055Z,12.40
2023-03-14T03:12:12.820Z,12.40
2023-03-14T03:13:15.492Z,12.40
2023-03-14T03:14:17.223Z,12.50
2023-03-14T03:15:19.262Z,12.50
2023-03-14T03:16:21.155Z,12.50
2023-03-14T03:17:23.002Z,12.50
2023-03-14T03:18:24.906Z,12.60
2023-03-14T03:19:26.780Z,12.60
2023-03-14T03:20:28.538Z,12.60
2023-03-14T03:21:30.433Z,12.50
2023-03-14T03:22:32.150Z,12.50
2023-03-14T03:23:34.194Z,12.50
2023-03-14T03:24:35.931Z,12.50
2023-03-14T03:25:37.728Z,12.50
2023-03-14T03:26:40.554Z,12.40
2023-03-14T03:27:42.268Z,12.40
2023-03-14T03:28:43.936Z,12.40
2023-03-14T03:29:46.008Z,12.50
2023-03-14T03:30:47.956Z,12.50
2023-03-14T03:31:49.882Z,12.50
2023-03-14T03:32:51.904Z,12.50
2023-03-14T03:33:53.611Z,12.50
2023-03-14T03:34:55.471Z,12.60
2023-03-14T03:35:57.962Z,12.60
2023-03-14T03:36:59.738Z,12.70
2023-03-14T03:38:01.527Z,12.70
2023-03-14T03:39:03.857Z,12.70
2023-03-14T03:40:07.130Z,12.70
2023-03-14T03:41:09.367Z,12.70
2023-03-14T03:42:14.379Z,12.60
2023-03-14T03:43:16.062Z,12.60
2023-03-14T03:44:17.762Z,12.60
2023-03-14T03:45:19.483Z,12.60
2023-03-14T03:46:21.517Z,12.60
2023-03-14T03:47:23.191Z,12.60
2023-03-14T03:48:24.858Z,12.60
2023-03-14T03:49:31.370Z,12.60
2023-03-14T03:50:33.217Z,12.60
2023-03-14T03:51:35.051Z,12.60
2023-03-14T03:52:36.752Z,12.60
2023-03-14T03:53:38.518Z,12.50
2023-03-14T03:54:40.827Z,12.50
2023-03-14T03:55:43.672Z,12.40
2023-03-14T03:56:45.364Z,12.40
2023-03-14T03:57:47.192Z,12.40
2023-03-14T03:58:50.748Z,12.40
2023-03-14T03:59:52.427Z,12.40
2023-03-14T04:00:55.211Z,12.40
2023-03-14T04:01:57.055Z,12.50
2023-03-14T04:02:59.211Z,12.50
2023-03-14T04:04:01.363Z,12.50
2023-03-14T04:05:03.940Z,12.50
2023-03-14T04:06:10.658Z,12.50
2023-03-14T04:07:15.154Z,12.50
2023-03-14T04:08:16.997Z,12.50
2023-03-14T04:09:18.677Z,12.50
2023-03-14T04:10:20.380Z,12.50
2023-03-14T04:11:22.319Z,12.40
2023-03-14T04:12:24.088Z,12.40
2023-03-14T04:13:26.919Z,12.40
2023-03-14T04:14:28.681Z,12.40
2023-03-14T04:15:30.870Z,12.30
2023-03-14T04:16:32.684Z,12.30
2023-03-14T04:17:34.324Z,12.30
2023-03-14T04:18:35.974Z,12.30
2023-03-14T04:19:37.646Z,12.20
2023-03-14T04:20:39.599Z,12.20
2023-03-14T04:21:46.022Z,12.20
2023-03-14T04:22:47.714Z,12.30
2023-03-14T04:23:49.425Z,12.20
2023-03-14T04:24:51.138Z,12.30
2023-03-14T04:25:53.852Z,12.20
2023-03-14T04:26:55.539Z,12.30
2023-03-14T04:27:57.217Z,12.30
2023-03-14T04:28:58.945Z,12.30
2023-03-14T04:30:00.792Z,12.40
2023-03-14T04:31:09.594Z,12.30
2023-03-14T04:32:11.495Z,12.40
2023-03-14T04:33:16.458Z,12.40
2023-03-14T04:34:18.120Z,12.40
2023-03-14T04:35:19.962Z,12.40
2023-03-14T04:36:21.630Z,12.40
2023-03-14T04:37:23.490Z,12.40
2023-03-14T04:38:25.328Z,12.40
2023-03-14T04:39:27.187Z,12.40
2023-03-14T04:40:29.025Z,12.40
2023-03-14T04:41:32.226Z,12.40
2023-03-14T04:42:34.227Z,12.30
2023-03-14T04:43:36.347Z,12.30
2023-03-14T04:44:38.297Z,12.30
2023-03-14T04:45:43.592Z,12.30
2023-03-14T04:46:45.459Z,12.30
2023-03-14T04:47:47.213Z,12.30
2023-03-14T04:48:48.968Z,12.20
2023-03-14T04:49:50.890Z,12.20
2023-03-14T04:50:53.531Z,12.20
2023-03-14T04:51:55.319Z,12.20
2023-03-14T04:52:57.344Z,12.20
2023-03-14T04:53:59.162Z,12.30
2023-03-14T04:55:01.369Z,12.20
2023-03-14T04:56:03.369Z,12.20
2023-03-14T04:57:05.234Z,12.20
2023-03-14T04:58:06.973Z,12.20
2023-03-14T04:59:09.856Z,12.20
2023-03-14T05:00:12.731Z,12.20
2023-03-14T05:01:14.805Z,12.20
2023-03-14T05:02:16.628Z,12.30
2023-03-14T05:03:19.930Z,12.30
2023-03-14T05:04:21.670Z,12.30
2023-03-14T05:05:24.354Z,12.30
2023-03-14T05:06:26.179Z,12.30
2023-03-14T05:07:27.883Z,12.30
2023-03-14T05:08:29.800Z,12.30
2023-03-14T05:09:31.500Z,12.30
2023-03-14T05:10:33.204Z,12.30
2023-03-14T05:11:37.682Z,12.30
2023-03-14T05:12:39.703Z,12.30
2023-03-14T05:13:41.430Z,12.30
2023-03-14T05:14:43.125Z,12.30
2023-03-14T05:15:51.697Z,12.30
2023-03-14T05:16:55.853Z,12.10
2023-03-14T05:17:57.488Z,12.30
2023-03-14T05:18:59.510Z,12.30
2023-03-14T05:20:01.191Z,12.30
2023-03-14T05:21:03.221Z,12.30
2023-03-14T05:22:04.882Z,12.30
2023-03-14T05:23:06.650Z,12.30
2023-03-14T05:24:08.394Z,12.30
2023-03-14T05:25:10.546Z,12.30
2023-03-14T05:26:12.218Z,12.40
2023-03-14T05:27:14.770Z,12.30
2023-03-14T05:28:16.411Z,12.30
2023-03-14T05:29:18.341Z,12.30
2023-03-14T05:30:20.041Z,12.30
2023-03-14T05:31:22.703Z,12.20
2023-03-14T05:32:24.677Z,12.20
2023-03-14T05:33:26.619Z,12.20
2023-03-14T05:34:28.311Z,12.20
2023-03-14T05:35:30.240Z,12.20
2023-03-14T05:36:32.285Z,12.20
2023-03-14T05:37:33.994Z,12.10
2023-03-14T05:38:35.738Z,12.10
2023-03-14T05:39:37.548Z,12.10
2023-03-14T05:40:39.245Z,12.10
2023-03-14T05:41:41.082Z,12.10
2023-03-14T05:42:42.784Z,12.10
2023-03-14T05:43:44.491Z,12.10
2023-03-14T05:44:46.371Z,12.10
2023-03-14T05:45:48.290Z,12.10
2023-03-14T05:46:50.012Z,12.10
2023-03-14T05:47:53.084Z,12.10
2023-03-14T05:48:54.925Z,12.10
2023-03-14T05:49:56.664Z,12.10
2023-03-14T05:51:00.430Z,12.10
2023-03-14T05:52:02.152Z,12.10
2023-03-14T05:53:03.856Z,12.10
2023-03-14T05:54:06.051Z,12.10
2023-03-14T05:55:08.433Z,12.10
2023-03-14T05:56:10.434Z,12.10
2023-03-14T05:57:12.423Z,12.10
2023-03-14T05:58:14.176Z,12.10
2023-03-14T05:59:15.946Z,12.10
2023-03-14T06:00:18.324Z,12.10
2023-03-14T06:01:19.929Z,12.10
2023-03-14T06:02:21.594Z,12.20
2023-03-14T06:03:23.507Z,12.20
2023-03-14T06:04:26.277Z,12.20
2023-03-14T06:05:28.121Z,12.20
2023-03-14T06:06:29.844Z,12.30
2023-03-14T06:07:31.474Z,12.30
2023-03-14T06:08:33.607Z,12.30
2023-03-14T06:09:35.447Z,12.30
2023-03-14T06:10:38.470Z,12.40
2023-03-14T06:11:40.463Z,12.30
2023-03-14T06:12:42.262Z,12.40
2023-03-14T06:13:44.186Z,12.40
2023-03-14T06:14:45.843Z,12.40
2023-03-14T06:15:48.340Z,12.40
2023-03-14T06:16:50.245Z,12.40
2023-03-14T06:17:52.344Z,12.40
2023-03-14T06:18:54.124Z,12.50
2023-03-14T06:19:55.763Z,12.50
2023-03-14T06:20:57.658Z,12.50
2023-03-14T06:21:59.347Z,12.50
2023-03-14T06:23:01.102Z,12.60
2023-03-14T06:24:02.866Z,12.60
2023-03-14T06:25:05.200Z,12.60
2023-03-14T06:26:07.408Z,12.60
2023-03-14T06:27:09.087Z,12.60
2023-03-14T06:28:10.777Z,12.60
2023-03-14T06:29:14.425Z,12.60
2023-03-14T06:30:16.346Z,12.60
2023-03-14T06:31:18.504Z,12.60
2023-03-14T06:32:21.600Z,12.70
2023-03-14T06:33:23.396Z,12.70
2023-03-14T06:34:25.062Z,12.70
2023-03-14T06:35:26.845Z,12.70
2023-03-14T06:36:28.613Z,12.60
2023-03-14T06:37:30.569Z,12.60
2023-03-14T06:38:32.234Z,12.50
2023-03-14T06:39:33.991Z,12.50
2023-03-14T06:40:35.681Z,12.50
2023-03-14T06:41:37.445Z,12.50
2023-03-14T06:42:39.195Z,12.40
2023-03-14T06:43:41.396Z,12.40
2023-03-14T06:44:44.518Z,12.40
2023-03-14T06:45:57.208Z,12.30
2023-03-14T06:47:00.772Z,12.30
2023-03-14T06:48:04.115Z,12.30
2023-03-14T06:49:05.740Z,12.30
2023-03-14T06:50:08.653Z,12.30
2023-03-14T06:51:10.574Z,12.30
2023-03-14T06:52:12.291Z,12.30
2023-03-14T06:53:14.013Z,12.30
2023-03-14T06:54:15.799Z,12.30
2023-03-14T06:55:21.266Z,12.20
2023-03-14T06:56:24.127Z,12.30
2023-03-14T06:57:26.004Z,12.20
2023-03-14T06:58:27.634Z,12.20
2023-03-14T06:59:29.274Z,12.20
2023-03-14T07:00:30.900Z,12.20
2023-03-14T07:01:39.306Z,12.20
2023-03-14T07:02:43.510Z,12.20
2023-03-14T07:03:45.359Z,12.20
2023-03-14T07:04:47.098Z,12.20
2023-03-14T07:05:48.848Z,12.20
2023-03-14T07:06:50.538Z,12.20
2023-03-14T07:07:52.325Z,12.30
2023-03-14T07:08:53.978Z,12.20
2023-03-14T07:09:55.728Z,12.20
2023-03-14T07:10:58.388Z,12.20
2023-03-14T07:12:00.132Z,12.30
2023-03-14T07:13:01.834Z,12.30
2023-03-14T07:14:03.889Z,12.30
2023-03-14T07:16:29.769Z,12.40
2023-03-14T07:17:31.458Z,12.40
2023-03-14T07:18:33.637Z,12.40
2023-03-14T07:19:36.270Z,12.40
2023-03-14T07:20:38.241Z,12.40
2023-03-14T07:21:40.008Z,12.50
2023-03-14T07:22:43.362Z,12.50
2023-03-14T07:23:45.056Z,12.50
2023-03-14T07:24:46.680Z,12.50
2023-03-14T07:25:48.478Z,12.50
2023-03-14T07:26:50.196Z,12.50
2023-03-14T07:27:53.116Z,12.50
2023-03-14T07:28:54.829Z,12.60
2023-03-14T07:29:56.484Z,12.70
2023-03-14T07:30:58.282Z,12.70
2023-03-14T07:31:59.956Z,12.70
2023-03-14T07:33:01.769Z,12.80
2023-03-14T07:34:04.123Z,12.70
2023-03-14T07:35:06.328Z,12.70
2023-03-14T07:36:08.669Z,12.70
2023-03-14T07:37:10.842Z,12.80
2023-03-14T07:38:12.472Z,12.80
2023-03-14T07:39:14.172Z,12.80
2023-03-14T07:40:16.189Z,12.80
2023-03-14T07:41:17.925Z,12.80
2023-03-14T07:42:19.836Z,12.80
2023-03-14T07:43:21.605Z,12.80
2023-03-14T07:44:23.274Z,12.80
2023-03-14T07:45:25.312Z,12.90
2023-03-14T07:46:27.090Z,12.90
2023-03-14T07:47:28.713Z,12.90
2023-03-14T07:48:31.835Z,12.90
2023-03-14T07:49:33.476Z,13.00
2023-03-14T07:50:35.095Z,13.00
2023-03-14T07:51:37.008Z,13.00
2023-03-14T07:52:38.629Z,13.00
2023-03-14T07:53:40.389Z,13.00
2023-03-14T07:54:42.034Z,13.00
2023-03-14T07:55:43.777Z,13.00
2023-03-14T07:56:45.357Z,13.00
2023-03-14T07:57:47.135Z,13.00
2023-03-14T07:58:48.743Z,13.00
2023-03-14T07:59:50.490Z,13.00
2023-03-14T08:00:52.908Z,13.00
2023-03-14T08:01:54.898Z,13.00
2023-03-14T08:02:56.666Z,13.10
2023-03-14T08:03:58.397Z,13.10
2023-03-14T08:05:00.513Z,13.10
2023-03-14T08:06:02.341Z,13.10
2023-03-14T08:07:03.964Z,13.10
2023-03-14T08:08:06.278Z,13.10
2023-03-14T08:09:07.881Z,13.20
2023-03-14T08:10:10.308Z,13.20
2023-03-14T08:11:12.172Z,13.20
2023-03-14T08:12:14.035Z,13.20
2023-03-14T08:13:16.192Z,13.20
2023-03-14T08:14:17.785Z,13.30
2023-03-14T08:15:19.802Z,13.30
2023-03-14T08:16:21.643Z,13.30
2023-03-14T08:17:23.308Z,13.30
2023-03-14T08:18:25.039Z,13.40
2023-03-14T08:19:27.233Z,13.40
2023-03-14T08:20:30.506Z,13.40
2023-03-14T08:21:32.139Z,13.40
2023-03-14T08:22:34.037Z,13.40
2023-03-14T08:23:35.744Z,13.50
2023-03-14T08:24:37.411Z,13.50
2023-03-14T08:25:40.555Z,13.50
2023-03-14T08:26:42.526Z,13.60
2023-03-14T08:27:45.002Z,13.60
2023-03-14T08:28:46.782Z,13.70
2023-03-14T08:29:48.464Z,13.60
2023-03-14T08:30:50.282Z,13.70
2023-03-14T08:31:52.317Z,13.70
2023-03-14T08:32:54.301Z,13.80
2023-03-14T08:33:56.242Z,13.70
2023-03-14T08:34:57.997Z,13.80
2023-03-14T08:36:04.244Z,13.80
2023-03-14T08:37:16.526Z,13.80
2023-03-14T08:38:25.597Z,13.70
2023-03-14T08:39:27.582Z,13.80
2023-03-14T08:40:29.281Z,13.70
2023-03-14T08:41:31.565Z,13.80
2023-03-14T08:42:34.424Z,13.80
2023-03-14T08:43:40.936Z,13.90
2023-03-14T08:44:43.015Z,13.90
2023-03-14T08:45:44.931Z,13.90
2023-03-14T08:46:46.846Z,14.00
2023-03-14T08:47:50.287Z,14.00
2023-03-14T08:48:52.320Z,14.10
2023-03-14T08:49:54.271Z,14.10
2023-03-14T08:51:17.141Z,14.00
2023-03-14T08:52:18.957Z,14.00
2023-03-14T08:53:21.904Z,14.00
2023-03-14T08:54:23.776Z,14.00
2023-03-14T08:55:25.760Z,13.90
2023-03-14T08:56:28.056Z,13.90
2023-03-14T08:57:30.738Z,13.90
2023-03-14T08:58:32.613Z,13.90
2023-03-14T08:59:34.384Z,13.90
2023-03-14T09:00:36.070Z,13.80
2023-03-14T09:01:38.028Z,13.80
2023-03-14T09:02:39.914Z,13.80
2023-03-14T09:03:41.535Z,13.70
2023-03-14T09:04:43.698Z,13.70
2023-03-14T09:05:45.333Z,13.80
2023-03-14T09:06:46.982Z,13.80
2023-03-14T09:07:48.603Z,13.80
2023-03-14T09:08:50.436Z,13.80
2023-03-14T09:09:52.148Z,13.90
2023-03-14T09:10:53.818Z,14.00
2023-03-14T09:11:55.545Z,13.90
2023-03-14T09:12:58.775Z,14.00
2023-03-14T09:14:00.471Z,13.90
2023-03-14T09:15:04.481Z,13.90
2023-03-14T09:16:07.030Z,13.90
2023-03-14T09:17:09.226Z,13.90
2023-03-14T09:18:11.134Z,13.70
2023-03-14T09:19:12.856Z,13.70
2023-03-14T09:20:15.312Z,13.70
2023-03-14T09:21:16.969Z,13.70
2023-03-14T09:22:18.648Z,13.60
2023-03-14T09:23:20.260Z,13.60
2023-03-14T09:24:22.266Z,13.70
2023-03-14T09:25:23.949Z,13.70
2023-03-14T09:26:26.628Z,13.70
2023-03-14T09:27:28.313Z,13.60
2023-03-14T09:28:30.001Z,13.60
2023-03-14T09:29:31.682Z,13.70
2023-03-14T09:30:33.753Z,13.70
2023-03-14T09:31:36.295Z,13.80
2023-03-14T09:32:38.386Z,13.80
2023-03-14T09:33:42.436Z,13.80
2023-03-14T09:34:44.634Z,13.80
2023-03-14T09:35:46.780Z,13.80
2023-03-14T09:36:48.592Z,13.80
2023-03-14T09:37:52.583Z,13.80
2023-03-14T09:38:58.962Z,13.80
2023-03-14T09:40:10.869Z,13.80
2023-03-14T09:41:22.241Z,13.80
2023-03-14T09:42:27.442Z,14.00
2023-03-14T09:43:32.210Z,13.90
2023-03-14T09:44:40.383Z,14.10
2023-03-14T09:45:43.800Z,14.00
2023-03-14T09:46:49.956Z,14.00
2023-03-14T09:47:59.225Z,14.00
2023-03-14T09:49:02.013Z,14.10
2023-03-14T09:50:04.592Z,14.00
2023-03-14T09:51:13.806Z,14.00
2023-03-14T09:52:30.648Z,14.00
2023-03-14T09:53:43.883Z,13.90
2023-03-14T09:54:52.974Z,13.90
2023-03-14T09:55:56.301Z,13.90
2023-03-14T09:56:58.102Z,13.90
2023-03-14T09:58:04.844Z,13.90
2023-03-14T09:59:11.989Z,14.00
2023-03-14T10:00:22.798Z,14.10
2023-03-14T10:01:29.375Z,14.00
2023-03-14T10:02:36.827Z,14.10
2023-03-14T10:03:38.543Z,14.20
2023-03-14T10:04:45.370Z,14.20
2023-03-14T10:05:47.430Z,14.20
2023-03-14T10:06:49.252Z,14.20
2023-03-14T10:07:51.252Z,14.10
2023-03-14T10:08:54.025Z,14.10
2023-03-14T10:09:56.126Z,14.10
2023-03-14T10:11:00.562Z,14.10
2023-03-14T10:12:08.969Z,14.10
2023-03-14T10:13:10.883Z,14.00
2023-03-14T10:14:14.286Z,14.00
2023-03-14T10:15:27.864Z,14.10
2023-03-14T10:16:31.371Z,14.10
2023-03-14T10:17:41.476Z,14.10
2023-03-14T10:18:47.677Z,14.20
2023-03-14T10:20:01.676Z,14.20
2023-03-14T10:21:07.765Z,14.20
2023-03-14T10:22:15.211Z,14.20
2023-03-14T10:23:16.813Z,14.10
2023-03-14T10:24:32.975Z,14.20
2023-03-14T10:25:39.981Z,14.30
2023-03-14T10:26:41.662Z,14.30
2023-03-14T10:27:43.319Z,14.30
2023-03-14T10:28:52.265Z,14.40
2023-03-14T10:30:01.756Z,14.40
2023-03-14T10:31:03.545Z,14.40
2023-03-14T10:32:11.296Z,14.40
2023-03-14T10:33:22.403Z,14.50
2023-03-14T10:34:31.198Z,14.60
2023-03-14T10:35:35.334Z,14.60
2023-03-14T10:36:37.044Z,14.60
2023-03-14T10:37:51.859Z,14.50
2023-03-14T10:39:17.692Z,14.50
2023-03-14T10:40:23.881Z,14.50
2023-03-14T10:41:27.897Z,14.60
2023-03-14T10:42:32.629Z,14.60
2023-03-14T10:43:37.717Z,14.60
2023-03-14T10:44:40.704Z,14.60
2023-03-14T10:45:44.674Z,14.60
2023-03-14T10:46:46.618Z,14.70
2023-03-14T10:47:51.064Z,14.80
2023-03-14T10:48:55.225Z,14.80
2023-03-14T10:49:58.477Z,14.80
2023-03-14T10:51:20.634Z,14.80
2023-03-14T10:52:31.047Z,14.70
2023-03-14T10:53:56.695Z,14.80
2023-03-14T10:55:01.069Z,14.80
2023-03-14T10:56:05.226Z,14.80
2023-03-14T10:57:07.455Z,14.80
2023-03-14T10:58:23.832Z,14.80
2023-03-14T10:59:28.773Z,14.80
2023-03-14T11:00:34.156Z,14.80
2023-03-14T11:01:44.709Z,14.70
2023-03-14T11:03:01.242Z,14.70
2023-03-14T11:04:22.383Z,14.60
2023-03-14T11:05:50.455Z,14.60
2023-03-14T11:07:01.697Z,14.50
2023-03-14T11:08:29.721Z,14.60
2023-03-14T11:10:05.378Z,14.50
2023-03-14T11:11:17.622Z,14.40
2023-03-14T11:12:56.918Z,14.30
2023-03-14T11:14:21.892Z,14.20
2023-03-14T11:15:29.283Z,14.20
2023-03-14T11:16:48.902Z,14.00
2023-03-14T11:18:26.598Z,14.10
2023-03-14T11:20:09.971Z,14.00
2023-03-14T11:21:33.825Z,14.00
2023-03-14T11:22:47.985Z,14.00
2023-03-14T11:24:21.725Z,13.90
2023-03-14T11:25:41.416Z,13.90
2023-03-14T11:26:58.817Z,13.90
2023-03-14T11:28:16.399Z,13.90
2023-03-14T11:29:18.112Z,13.90
2023-03-14T11:30:28.799Z,13.80
2023-03-14T11:31:36.402Z,13.80
2023-03-14T11:33:10.329Z,13.70
2023-03-14T11:34:18.714Z,13.60
2023-03-14T11:35:39.833Z,13.50
2023-03-14T11:37:00.054Z,13.50
2023-03-14T11:38:16.271Z,13.30
2023-03-14T11:39:20.861Z,13.30
2023-03-14T11:40:27.418Z,13.30
2023-03-14T11:41:31.667Z,13.20
2023-03-14T11:42:34.055Z,13.20
2023-03-14T11:43:44.750Z,13.20
2023-03-14T11:44:51.852Z,13.20
2023-03-14T11:45:59.735Z,13.30
2023-03-14T11:47:11.057Z,13.30
2023-03-14T11:48:33.046Z,13.30
2023-03-14T11:49:39.923Z,13.30
2023-03-14T11:50:44.072Z,13.30
2023-03-14T11:51:48.999Z,13.20
2023-03-14T11:53:24.464Z,13.30
2023-03-14T11:54:35.006Z,13.30
2023-03-14T11:55:39.892Z,13.30
2023-03-14T11:56:55.151Z,13.30
2023-03-14T11:58:02.232Z,13.30
2023-03-14T11:59:19.371Z,13.40
2023-03-14T12:00:23.888Z,13.40
2023-03-14T12:01:35.229Z,13.30
2023-03-14T12:02:46.022Z,13.30
2023-03-14T12:04:14.635Z,13.40
2023-03-14T12:05:47.882Z,13.40
2023-03-14T12:06:51.301Z,13.40
2023-03-14T12:08:33.486Z,13.40
2023-03-14T12:09:35.975Z,13.40
2023-03-14T12:10:46.516Z,13.30
2023-03-14T12:11:59.270Z,13.40
2023-03-14T12:13:02.409Z,13.40
2023-03-14T12:14:16.692Z,13.40
2023-03-14T12:15:23.352Z,13.50
2023-03-14T12:16:24.938Z,13.50
2023-03-14T12:17:47.386Z,13.50
2023-03-14T12:18:49.291Z,13.50
2023-03-14T12:20:22.152Z,13.50
2023-03-14T12:21:35.438Z,13.40
2023-03-14T12:22:45.980Z,13.40
2023-03-14T12:23:53.838Z,13.40
2023-03-14T12:25:02.753Z,13.40
2023-03-14T12:26:09.747Z,13.30
2023-03-14T12:27:34.760Z,13.30
2023-03-14T12:28:36.424Z,13.30
2023-03-14T12:30:01.076Z,13.30
2023-03-14T12:31:30.603Z,13.30
2023-03-14T12:32:33.508Z,13.30
2023-03-14T12:33:35.346Z,13.30
2023-03-14T12:34:46.426Z,13.40
2023-03-14T12:35:50.554Z,13.30
2023-03-14T12:37:15.212Z,13.30
2023-03-14T12:38:22.438Z,13.20
2023-03-14T12:39:49.288Z,13.10
2023-03-14T12:41:04.096Z,13.10
2023-03-14T12:42:18.501Z,13.20
2023-03-14T12:43:30.193Z,13.20
2023-03-14T12:44:33.994Z,13.20
2023-03-14T12:45:37.120Z,13.30
2023-03-14T12:46:38.862Z,13.30
2023-03-14T12:47:40.399Z,13.30
2023-03-14T12:48:42.093Z,13.10
2023-03-14T12:49:44.497Z,12.90
2023-03-14T12:51:13.270Z,12.90
2023-03-14T12:52:28.865Z,12.70
2023-03-14T12:53:55.264Z,12.70
2023-03-14T12:55:19.696Z,12.70
2023-03-14T12:56:41.623Z,12.70
2023-03-14T12:57:57.592Z,12.60
2023-03-14T12:59:17.938Z,12.50
2023-03-14T13:00:39.524Z,12.40
2023-03-14T13:01:49.520Z,12.50
2023-03-14T13:02:51.721Z,12.40
2023-03-14T13:03:57.275Z,12.30
2023-03-14T13:05:06.233Z,12.30
2023-03-14T13:06:11.335Z,12.40
2023-03-14T13:07:33.291Z,12.50
2023-03-14T13:08:44.757Z,12.50
2023-03-14T13:10:12.483Z,12.60
2023-03-14T13:11:20.309Z,12.40
2023-03-14T13:12:28.851Z,12.40
2023-03-14T13:13:30.824Z,12.50
2023-03-14T13:14:34.052Z,12.50
2023-03-14T13:15:46.981Z,12.50
2023-03-14T13:16:48.697Z,12.50
2023-03-14T13:17:53.984Z,12.30
2023-03-14T13:19:12.343Z,12.30
2023-03-14T13:20:25.546Z,12.30
2023-03-14T13:21:28.950Z,12.30
2023-03-14T13:22:34.558Z,12.20
2023-03-14T13:23:38.271Z,12.20
2023-03-14T13:24:40.063Z,12.20
2023-03-14T13:25:41.715Z,12.30
2023-03-14T13:26:44.405Z,12.20
2023-03-14T13:27:46.364Z,12.10
2023-03-14T13:28:48.048Z,12.10
2023-03-14T13:29:51.279Z,12.10
2023-03-14T13:30:58.174Z,12.00
2023-03-14T13:32:02.733Z,12.00
2023-03-14T13:33:05.807Z,11.90
2023-03-14T13:34:11.598Z,11.90
2023-03-14T13:35:28.311Z,11.80
2023-03-14T13:36:30.349Z,11.80
2023-03-14T13:37:32.023Z,11.80
2023-03-14T13:38:36.619Z,11.90
2023-03-14T13:39:40.910Z,11.90
2023-03-14T13:40:45.464Z,11.90
2023-03-14T13:41:47.736Z,11.90
2023-03-14T13:42:49.672Z,11.80
2023-03-14T13:43:51.341Z,11.80
2023-03-14T13:44:55.606Z,11.90
2023-03-14T13:46:15.797Z,11.80
2023-03-14T13:47:20.942Z,11.80
2023-03-14T13:48:26.545Z,11.80
2023-03-14T13:49:30.070Z,11.70
2023-03-14T13:50:31.776Z,11.80
2023-03-14T13:51:34.150Z,11.90
2023-03-14T13:52:39.355Z,11.80
2023-03-14T13:53:50.747Z,11.80
2023-03-14T13:54:56.918Z,11.80
2023-03-14T13:56:04.053Z,11.70
2023-03-14T13:57:06.954Z,11.70
2023-03-14T13:58:29.470Z,11.80
2023-03-14T13:59:34.110Z,11.70